sensor_id;sensor_type;location;lat;lon;timestamp;temperature;humidity
21092;DHT22;10704;42.678;23.288;2022-12-10T00:01:14;8.60;99.90
21092;DHT22;10704;42.678;23.288;2022-12-10T00:03:40;8.70;99.90
21092;DHT22;10704;42.678;23.288;2022-12-10T00:06:08;8.70;99.90
21092;DHT22;10704;42.678;23.288;2022-12-10T00:08:35;8.80;99.90
21092;DHT22;10704;42.678;23.288;2022-12-10T00:11:08;8.80;99.90
21092;DHT22;10704;42.678;23.288;2022-12-10T00:13:36;8.70;99.90
21092;DHT22;10704;42.678;23.288;2022-12-10T00:16:04;8.70;99.90
21092;DHT22;10704;42.678;23.288;2022-12-10T00:18:30;8.80;99.90
21092;DHT22;10704;42.678;23.288;2022-12-10T00:20:56;8.80;99.90
21092;DHT22;10704;42.678;23.288;2022-12-10T00:23:22;8.90;99.90
21092;DHT22;10704;42.678;23.288;2022-12-10T00:25:49;8.90;99.90
21092;DHT22;10704;42.678;23.288;2022-12-10T00:28:14;8.80;99.90
21092;DHT22;10704;42.678;23.288;2022-12-10T00:30:40;8.80;99.90
21092;DHT22;10704;42.678;23.288;2022-12-10T00:33:06;8.70;99.90
21092;DHT22;10704;42.678;23.288;2022-12-10T00:35:35;8.70;99.90
21092;DHT22;10704;42.678;23.288;2022-12-10T00:38:02;8.70;99.90
21092;DHT22;10704;42.678;23.288;2022-12-10T00:40:28;8.60;99.90
21092;DHT22;10704;42.678;23.288;2022-12-10T00:42:53;8.60;99.90
21092;DHT22;10704;42.678;23.288;2022-12-10T00:45:19;8.60;99.90
21092;DHT22;10704;42.678;23.288;2022-12-10T00:47:46;8.60;99.90
21092;DHT22;10704;42.678;23.288;2022-12-10T00:50:12;8.70;99.90
21092;DHT22;10704;42.678;23.288;2022-12-10T00:52:38;8.80;99.90
21092;DHT22;10704;42.678;23.288;2022-12-10T00:55:04;8.80;99.90
21092;DHT22;10704;42.678;23.288;2022-12-10T00:57:30;8.80;99.90
21092;DHT22;10704;42.678;23.288;2022-12-10T00:59:55;8.90;99.90
21092;DHT22;10704;42.678;23.288;2022-12-10T01:02:21;8.90;99.90
21092;DHT22;10704;42.678;23.288;2022-12-10T01:04:52;8.80;99.90
21092;DHT22;10704;42.678;23.288;2022-12-10T01:07:18;8.80;99.90
21092;DHT22;10704;42.678;23.288;2022-12-10T01:09:44;8.90;99.90
21092;DHT22;10704;42.678;23.288;2022-12-10T01:12:10;8.90;99.90
21092;DHT22;10704;42.678;23.288;2022-12-10T01:14:36;8.90;99.90
21092;DHT22;10704;42.678;23.288;2022-12-10T01:17:03;8.80;99.90
21092;DHT22;10704;42.678;23.288;2022-12-10T01:19:30;8.90;99.90
21092;DHT22;10704;42.678;23.288;2022-12-10T01:21:56;8.80;99.90
21092;DHT22;10704;42.678;23.288;2022-12-10T01:24:24;8.70;99.90
21092;DHT22;10704;42.678;23.288;2022-12-10T01:26:51;8.70;99.90
21092;DHT22;10704;42.678;23.288;2022-12-10T01:56:26;8.60;99.90
21092;DHT22;10704;42.678;23.288;2022-12-10T01:58:55;8.90;99.90
21092;DHT22;10704;42.678;23.288;2022-12-10T02:01:25;8.90;99.90
21092;DHT22;10704;42.678;23.288;2022-12-10T02:12:02;9.10;99.90
21092;DHT22;10704;42.678;23.288;2022-12-10T02:17:27;9.10;99.90
21092;DHT22;10704;42.678;23.288;2022-12-10T02:20:11;9.10;99.90
21092;DHT22;10704;42.678;23.288;2022-12-10T02:22:46;9.10;99.90
21092;DHT22;10704;42.678;23.288;2022-12-10T02:25:15;9.10;99.90
21092;DHT22;10704;42.678;23.288;2022-12-10T02:30:12;9.00;99.90
21092;DHT22;10704;42.678;23.288;2022-12-10T02:32:40;9.00;99.90
21092;DHT22;10704;42.678;23.288;2022-12-10T02:35:14;9.10;99.90
21092;DHT22;10704;42.678;23.288;2022-12-10T02:37:59;9.10;99.90
21092;DHT22;10704;42.678;23.288;2022-12-10T02:40:31;9.10;99.90
21092;DHT22;10704;42.678;23.288;2022-12-10T02:42:59;9.20;99.90
21092;DHT22;10704;42.678;23.288;2022-12-10T02:45:27;9.10;99.90
21092;DHT22;10704;42.678;23.288;2022-12-10T02:47:57;9.10;99.90
21092;DHT22;10704;42.678;23.288;2022-12-10T02:50:26;9.10;99.90
21092;DHT22;10704;42.678;23.288;2022-12-10T02:52:52;9.10;99.90
21092;DHT22;10704;42.678;23.288;2022-12-10T02:55:19;9.00;99.90
21092;DHT22;10704;42.678;23.288;2022-12-10T03:00:27;9.00;99.90
21092;DHT22;10704;42.678;23.288;2022-12-10T03:06:09;9.00;99.90
21092;DHT22;10704;42.678;23.288;2022-12-10T03:08:52;9.20;99.90
21092;DHT22;10704;42.678;23.288;2022-12-10T03:11:22;9.20;99.90
21092;DHT22;10704;42.678;23.288;2022-12-10T03:16:24;9.10;99.90
21092;DHT22;10704;42.678;23.288;2022-12-10T03:18:56;9.20;99.90
21092;DHT22;10704;42.678;23.288;2022-12-10T03:21:23;9.30;99.90
21092;DHT22;10704;42.678;23.288;2022-12-10T03:23:51;9.30;99.90
21092;DHT22;10704;42.678;23.288;2022-12-10T03:26:18;9.30;99.90
21092;DHT22;10704;42.678;23.288;2022-12-10T03:28:55;9.30;99.90
21092;DHT22;10704;42.678;23.288;2022-12-10T03:31:22;9.30;99.90
21092;DHT22;10704;42.678;23.288;2022-12-10T03:33:49;9.30;99.90
21092;DHT22;10704;42.678;23.288;2022-12-10T03:36:16;9.30;99.90
21092;DHT22;10704;42.678;23.288;2022-12-10T03:38:43;9.30;99.90
21092;DHT22;10704;42.678;23.288;2022-12-10T03:41:09;9.30;99.90
21092;DHT22;10704;42.678;23.288;2022-12-10T03:43:35;9.30;99.90
21092;DHT22;10704;42.678;23.288;2022-12-10T03:46:01;9.40;99.90
21092;DHT22;10704;42.678;23.288;2022-12-10T03:48:27;9.40;99.90
21092;DHT22;10704;42.678;23.288;2022-12-10T03:50:53;9.40;99.90
21092;DHT22;10704;42.678;23.288;2022-12-10T03:53:19;9.40;99.90
21092;DHT22;10704;42.678;23.288;2022-12-10T03:55:45;9.50;99.90
21092;DHT22;10704;42.678;23.288;2022-12-10T03:58:11;9.50;99.90
21092;DHT22;10704;42.678;23.288;2022-12-10T04:00:37;9.50;99.90
21092;DHT22;10704;42.678;23.288;2022-12-10T04:03:03;9.50;99.90
21092;DHT22;10704;42.678;23.288;2022-12-10T04:05:28;9.50;99.90
21092;DHT22;10704;42.678;23.288;2022-12-10T04:07:54;9.70;99.90
21092;DHT22;10704;42.678;23.288;2022-12-10T04:10:20;9.80;99.90
21092;DHT22;10704;42.678;23.288;2022-12-10T04:12:46;9.90;99.90
21092;DHT22;10704;42.678;23.288;2022-12-10T04:15:32;9.90;99.90
21092;DHT22;10704;42.678;23.288;2022-12-10T04:18:17;9.90;99.90
21092;DHT22;10704;42.678;23.288;2022-12-10T04:20:43;10.00;99.90
21092;DHT22;10704;42.678;23.288;2022-12-10T04:23:27;10.00;99.90
21092;DHT22;10704;42.678;23.288;2022-12-10T04:26:11;10.00;99.90
21092;DHT22;10704;42.678;23.288;2022-12-10T04:28:57;10.00;99.90
21092;DHT22;10704;42.678;23.288;2022-12-10T04:31:23;10.10;99.90
21092;DHT22;10704;42.678;23.288;2022-12-10T04:33:49;10.10;99.90
21092;DHT22;10704;42.678;23.288;2022-12-10T04:36:15;10.10;99.90
21092;DHT22;10704;42.678;23.288;2022-12-10T04:38:41;10.10;99.90
21092;DHT22;10704;42.678;23.288;2022-12-10T04:41:07;10.10;99.90
21092;DHT22;10704;42.678;23.288;2022-12-10T04:43:41;10.10;99.90
21092;DHT22;10704;42.678;23.288;2022-12-10T04:46:09;10.10;99.90
21092;DHT22;10704;42.678;23.288;2022-12-10T04:48:35;10.00;99.90
21092;DHT22;10704;42.678;23.288;2022-12-10T04:51:01;10.00;99.90
21092;DHT22;10704;42.678;23.288;2022-12-10T04:53:28;10.10;99.90
21092;DHT22;10704;42.678;23.288;2022-12-10T04:55:54;10.10;99.90
21092;DHT22;10704;42.678;23.288;2022-12-10T04:58:20;10.10;99.90
21092;DHT22;10704;42.678;23.288;2022-12-10T05:00:45;10.10;99.90
21092;DHT22;10704;42.678;23.288;2022-12-10T05:03:11;10.10;99.90
21092;DHT22;10704;42.678;23.288;2022-12-10T05:05:37;10.00;99.90
21092;DHT22;10704;42.678;23.288;2022-12-10T05:08:03;10.00;99.90
21092;DHT22;10704;42.678;23.288;2022-12-10T05:10:30;10.00;99.90
21092;DHT22;10704;42.678;23.288;2022-12-10T05:12:56;10.00;99.90
21092;DHT22;10704;42.678;23.288;2022-12-10T05:15:21;10.00;99.90
21092;DHT22;10704;42.678;23.288;2022-12-10T05:17:48;10.10;99.90
21092;DHT22;10704;42.678;23.288;2022-12-10T05:20:14;10.10;99.90
21092;DHT22;10704;42.678;23.288;2022-12-10T05:22:40;10.10;99.90
21092;DHT22;10704;42.678;23.288;2022-12-10T05:25:24;10.00;99.90
21092;DHT22;10704;42.678;23.288;2022-12-10T05:27:50;10.00;99.90
21092;DHT22;10704;42.678;23.288;2022-12-10T05:30:16;10.00;99.90
21092;DHT22;10704;42.678;23.288;2022-12-10T05:32:42;10.00;99.90
21092;DHT22;10704;42.678;23.288;2022-12-10T05:35:08;10.00;99.90
21092;DHT22;10704;42.678;23.288;2022-12-10T05:37:34;10.00;99.90
21092;DHT22;10704;42.678;23.288;2022-12-10T05:39:59;10.00;99.90
21092;DHT22;10704;42.678;23.288;2022-12-10T05:42:25;10.10;99.90
21092;DHT22;10704;42.678;23.288;2022-12-10T05:44:51;9.90;99.90
21092;DHT22;10704;42.678;23.288;2022-12-10T05:47:17;9.90;99.90
21092;DHT22;10704;42.678;23.288;2022-12-10T05:49:43;9.90;99.90
21092;DHT22;10704;42.678;23.288;2022-12-10T05:52:09;9.90;99.90
21092;DHT22;10704;42.678;23.288;2022-12-10T05:54:35;9.80;99.90
21092;DHT22;10704;42.678;23.288;2022-12-10T05:57:02;9.90;99.90
21092;DHT22;10704;42.678;23.288;2022-12-10T05:59:28;9.90;99.90
21092;DHT22;10704;42.678;23.288;2022-12-10T06:01:54;9.90;99.90
21092;DHT22;10704;42.678;23.288;2022-12-10T06:04:20;9.90;99.90
21092;DHT22;10704;42.678;23.288;2022-12-10T06:06:46;9.90;99.90
21092;DHT22;10704;42.678;23.288;2022-12-10T06:09:13;10.00;99.90
21092;DHT22;10704;42.678;23.288;2022-12-10T06:11:39;10.00;99.90
21092;DHT22;10704;42.678;23.288;2022-12-10T06:14:05;10.00;99.90
21092;DHT22;10704;42.678;23.288;2022-12-10T06:16:31;10.10;99.90
21092;DHT22;10704;42.678;23.288;2022-12-10T06:18:57;10.10;99.90
21092;DHT22;10704;42.678;23.288;2022-12-10T06:21:24;10.20;99.90
21092;DHT22;10704;42.678;23.288;2022-12-10T06:23:50;10.10;99.90
21092;DHT22;10704;42.678;23.288;2022-12-10T06:26:24;10.10;99.90
21092;DHT22;10704;42.678;23.288;2022-12-10T06:28:51;10.10;99.90
21092;DHT22;10704;42.678;23.288;2022-12-10T06:31:17;10.10;99.90
21092;DHT22;10704;42.678;23.288;2022-12-10T06:33:43;9.90;99.90
21092;DHT22;10704;42.678;23.288;2022-12-10T06:36:11;10.00;99.90
21092;DHT22;10704;42.678;23.288;2022-12-10T06:38:38;10.10;99.90
21092;DHT22;10704;42.678;23.288;2022-12-10T06:41:05;10.10;99.90
21092;DHT22;10704;42.678;23.288;2022-12-10T06:43:32;10.10;99.90
21092;DHT22;10704;42.678;23.288;2022-12-10T06:45:58;10.10;99.90
21092;DHT22;10704;42.678;23.288;2022-12-10T06:48:25;10.10;99.90
21092;DHT22;10704;42.678;23.288;2022-12-10T06:50:50;10.10;99.90
21092;DHT22;10704;42.678;23.288;2022-12-10T06:53:16;10.20;99.90
21092;DHT22;10704;42.678;23.288;2022-12-10T06:55:42;10.10;99.90
21092;DHT22;10704;42.678;23.288;2022-12-10T06:58:08;10.30;99.90
21092;DHT22;10704;42.678;23.288;2022-12-10T07:00:34;10.40;99.90
21092;DHT22;10704;42.678;23.288;2022-12-10T07:03:00;10.40;99.90
21092;DHT22;10704;42.678;23.288;2022-12-10T07:05:26;10.50;99.90
21092;DHT22;10704;42.678;23.288;2022-12-10T07:07:52;10.40;99.90
21092;DHT22;10704;42.678;23.288;2022-12-10T07:10:18;10.40;99.90
21092;DHT22;10704;42.678;23.288;2022-12-10T07:12:44;10.30;99.90
21092;DHT22;10704;42.678;23.288;2022-12-10T07:15:10;10.40;99.90
21092;DHT22;10704;42.678;23.288;2022-12-10T07:17:36;10.40;99.90
21092;DHT22;10704;42.678;23.288;2022-12-10T07:20:02;10.50;99.90
21092;DHT22;10704;42.678;23.288;2022-12-10T07:22:28;10.50;99.90
21092;DHT22;10704;42.678;23.288;2022-12-10T07:24:54;10.50;99.90
21092;DHT22;10704;42.678;23.288;2022-12-10T07:27:20;10.50;99.90
21092;DHT22;10704;42.678;23.288;2022-12-10T07:29:46;10.50;99.90
21092;DHT22;10704;42.678;23.288;2022-12-10T07:32:13;10.60;99.90
21092;DHT22;10704;42.678;23.288;2022-12-10T07:34:39;10.60;99.90
21092;DHT22;10704;42.678;23.288;2022-12-10T07:37:05;10.60;99.90
21092;DHT22;10704;42.678;23.288;2022-12-10T07:39:32;10.60;99.90
21092;DHT22;10704;42.678;23.288;2022-12-10T07:41:58;10.60;99.90
21092;DHT22;10704;42.678;23.288;2022-12-10T07:44:27;10.50;99.90
21092;DHT22;10704;42.678;23.288;2022-12-10T07:46:54;10.50;99.90
21092;DHT22;10704;42.678;23.288;2022-12-10T07:49:20;10.50;99.90
21092;DHT22;10704;42.678;23.288;2022-12-10T07:51:48;10.70;99.90
21092;DHT22;10704;42.678;23.288;2022-12-10T07:54:15;10.70;99.90
21092;DHT22;10704;42.678;23.288;2022-12-10T07:56:42;10.90;99.90
21092;DHT22;10704;42.678;23.288;2022-12-10T07:59:08;11.00;99.90
21092;DHT22;10704;42.678;23.288;2022-12-10T08:01:34;11.10;99.90
21092;DHT22;10704;42.678;23.288;2022-12-10T08:04:02;11.30;99.90
21092;DHT22;10704;42.678;23.288;2022-12-10T08:06:28;11.40;99.90
21092;DHT22;10704;42.678;23.288;2022-12-10T08:08:55;11.50;99.90
21092;DHT22;10704;42.678;23.288;2022-12-10T08:11:22;11.60;99.90
21092;DHT22;10704;42.678;23.288;2022-12-10T08:13:48;11.60;99.90
21092;DHT22;10704;42.678;23.288;2022-12-10T08:16:19;11.70;99.90
21092;DHT22;10704;42.678;23.288;2022-12-10T08:18:46;11.80;99.90
21092;DHT22;10704;42.678;23.288;2022-12-10T08:21:17;11.90;99.90
21092;DHT22;10704;42.678;23.288;2022-12-10T08:23:44;12.00;99.90
21092;DHT22;10704;42.678;23.288;2022-12-10T08:26:24;12.10;99.90
21092;DHT22;10704;42.678;23.288;2022-12-10T08:28:51;12.10;99.90
21092;DHT22;10704;42.678;23.288;2022-12-10T08:31:19;12.20;99.90
21092;DHT22;10704;42.678;23.288;2022-12-10T08:33:46;12.30;99.90
21092;DHT22;10704;42.678;23.288;2022-12-10T08:36:14;12.30;99.90
21092;DHT22;10704;42.678;23.288;2022-12-10T08:38:41;12.30;99.90
21092;DHT22;10704;42.678;23.288;2022-12-10T08:41:09;12.30;99.90
21092;DHT22;10704;42.678;23.288;2022-12-10T08:43:35;12.30;99.90
21092;DHT22;10704;42.678;23.288;2022-12-10T08:46:02;12.40;99.90
21092;DHT22;10704;42.678;23.288;2022-12-10T08:48:28;12.50;99.90
21092;DHT22;10704;42.678;23.288;2022-12-10T08:50:54;12.60;99.90
21092;DHT22;10704;42.678;23.288;2022-12-10T08:53:21;13.00;99.90
21092;DHT22;10704;42.678;23.288;2022-12-10T08:55:50;14.10;99.90
21092;DHT22;10704;42.678;23.288;2022-12-10T08:58:17;15.00;99.90
21092;DHT22;10704;42.678;23.288;2022-12-10T09:00:43;15.60;99.90
21092;DHT22;10704;42.678;23.288;2022-12-10T09:03:09;16.10;99.90
21092;DHT22;10704;42.678;23.288;2022-12-10T09:05:36;15.70;99.90
21092;DHT22;10704;42.678;23.288;2022-12-10T09:08:02;15.50;99.90
21092;DHT22;10704;42.678;23.288;2022-12-10T09:10:27;15.80;99.90
21092;DHT22;10704;42.678;23.288;2022-12-10T09:12:53;16.10;99.90
21092;DHT22;10704;42.678;23.288;2022-12-10T09:15:19;17.10;99.90
21092;DHT22;10704;42.678;23.288;2022-12-10T09:17:45;17.50;99.90
21092;DHT22;10704;42.678;23.288;2022-12-10T09:20:11;18.60;99.90
21092;DHT22;10704;42.678;23.288;2022-12-10T09:22:38;19.30;99.90
21092;DHT22;10704;42.678;23.288;2022-12-10T09:25:06;19.10;99.90
21092;DHT22;10704;42.678;23.288;2022-12-10T09:27:33;18.40;99.90
21092;DHT22;10704;42.678;23.288;2022-12-10T09:29:59;18.30;99.90
21092;DHT22;10704;42.678;23.288;2022-12-10T09:32:25;18.10;99.90
21092;DHT22;10704;42.678;23.288;2022-12-10T09:34:51;18.20;99.90
21092;DHT22;10704;42.678;23.288;2022-12-10T09:37:18;18.60;99.90
21092;DHT22;10704;42.678;23.288;2022-12-10T09:39:44;18.80;99.90
21092;DHT22;10704;42.678;23.288;2022-12-10T09:45:50;19.60;99.90
21092;DHT22;10704;42.678;23.288;2022-12-10T09:51:11;18.90;99.90
21092;DHT22;10704;42.678;23.288;2022-12-10T09:53:38;18.50;99.90
21092;DHT22;10704;42.678;23.288;2022-12-10T09:56:09;18.10;99.90
21092;DHT22;10704;42.678;23.288;2022-12-10T09:58:40;18.10;99.90
21092;DHT22;10704;42.678;23.288;2022-12-10T10:01:06;18.80;99.90
21092;DHT22;10704;42.678;23.288;2022-12-10T10:03:38;18.90;99.90
21092;DHT22;10704;42.678;23.288;2022-12-10T10:06:08;19.50;99.90
21092;DHT22;10704;42.678;23.288;2022-12-10T10:08:56;20.60;99.90
21092;DHT22;10704;42.678;23.288;2022-12-10T10:11:29;20.90;99.90
21092;DHT22;10704;42.678;23.288;2022-12-10T10:14:04;21.00;99.90
21092;DHT22;10704;42.678;23.288;2022-12-10T10:16:53;20.60;99.90
21092;DHT22;10704;42.678;23.288;2022-12-10T10:19:31;20.20;99.90
21092;DHT22;10704;42.678;23.288;2022-12-10T10:21:59;20.50;99.90
21092;DHT22;10704;42.678;23.288;2022-12-10T10:24:34;20.10;99.90
21092;DHT22;10704;42.678;23.288;2022-12-10T10:27:25;20.10;99.90
21092;DHT22;10704;42.678;23.288;2022-12-10T10:29:56;20.30;99.90
21092;DHT22;10704;42.678;23.288;2022-12-10T10:35:01;20.50;99.90
21092;DHT22;10704;42.678;23.288;2022-12-10T10:37:45;20.00;99.90
21092;DHT22;10704;42.678;23.288;2022-12-10T10:42:52;20.00;99.90
21092;DHT22;10704;42.678;23.288;2022-12-10T10:45:41;19.90;99.90
21092;DHT22;10704;42.678;23.288;2022-12-10T10:51:13;20.60;99.90
21092;DHT22;10704;42.678;23.288;2022-12-10T10:53:43;21.30;99.90
21092;DHT22;10704;42.678;23.288;2022-12-10T11:01:47;20.90;99.90
21092;DHT22;10704;42.678;23.288;2022-12-10T11:04:15;20.00;99.90
21092;DHT22;10704;42.678;23.288;2022-12-10T11:06:42;20.00;99.90
21092;DHT22;10704;42.678;23.288;2022-12-10T11:09:20;20.20;99.90
21092;DHT22;10704;42.678;23.288;2022-12-10T11:11:51;20.10;99.90
21092;DHT22;10704;42.678;23.288;2022-12-10T11:14:30;20.00;99.90
21092;DHT22;10704;42.678;23.288;2022-12-10T11:20:19;19.40;99.90
21092;DHT22;10704;42.678;23.288;2022-12-10T11:22:33;19.30;99.90
21092;DHT22;10704;42.678;23.288;2022-12-10T11:25:00;19.40;99.90
21092;DHT22;10704;42.678;23.288;2022-12-10T11:30:05;18.90;99.90
21092;DHT22;10704;42.678;23.288;2022-12-10T11:35:36;18.80;99.90
21092;DHT22;10704;42.678;23.288;2022-12-10T11:49:19;18.50;99.90
21092;DHT22;10704;42.678;23.288;2022-12-10T12:00:19;17.40;99.90
21092;DHT22;10704;42.678;23.288;2022-12-10T12:08:30;17.00;99.90
21092;DHT22;10704;42.678;23.288;2022-12-10T12:16:45;16.60;99.90
21092;DHT22;10704;42.678;23.288;2022-12-10T12:19:34;16.40;99.90
21092;DHT22;10704;42.678;23.288;2022-12-10T12:22:13;16.10;99.90
21092;DHT22;10704;42.678;23.288;2022-12-10T12:24:42;15.80;99.90
21092;DHT22;10704;42.678;23.288;2022-12-10T12:30:02;15.80;99.90
21092;DHT22;10704;42.678;23.288;2022-12-10T12:46:09;15.00;99.90
21092;DHT22;10704;42.678;23.288;2022-12-10T12:48:53;14.90;99.90
21092;DHT22;10704;42.678;23.288;2022-12-10T12:54:11;15.00;99.90
21092;DHT22;10704;42.678;23.288;2022-12-10T12:56:57;15.10;99.90
21092;DHT22;10704;42.678;23.288;2022-12-10T13:02:54;15.10;99.90
21092;DHT22;10704;42.678;23.288;2022-12-10T13:05:15;15.00;99.90
21092;DHT22;10704;42.678;23.288;2022-12-10T13:07:42;15.00;99.90
21092;DHT22;10704;42.678;23.288;2022-12-10T13:13:15;14.90;99.90
21092;DHT22;10704;42.678;23.288;2022-12-10T13:15:42;14.90;99.90
21092;DHT22;10704;42.678;23.288;2022-12-10T13:23:50;14.90;99.90
21092;DHT22;10704;42.678;23.288;2022-12-10T13:26:30;14.80;99.90
21092;DHT22;10704;42.678;23.288;2022-12-10T13:29:58;14.90;99.90
21092;DHT22;10704;42.678;23.288;2022-12-10T13:32:03;14.80;99.90
21092;DHT22;10704;42.678;23.288;2022-12-10T13:34:35;14.70;99.90
21092;DHT22;10704;42.678;23.288;2022-12-10T13:37:15;14.60;99.90
21092;DHT22;10704;42.678;23.288;2022-12-10T13:39:52;14.60;99.90
21092;DHT22;10704;42.678;23.288;2022-12-10T13:42:26;14.60;99.90
21092;DHT22;10704;42.678;23.288;2022-12-10T13:47:49;14.30;99.90
21092;DHT22;10704;42.678;23.288;2022-12-10T13:55:59;14.20;99.90
21092;DHT22;10704;42.678;23.288;2022-12-10T14:01:20;14.20;99.90
21092;DHT22;10704;42.678;23.288;2022-12-10T14:04:27;14.20;99.90
21092;DHT22;10704;42.678;23.288;2022-12-10T14:06:56;14.10;99.90
21092;DHT22;10704;42.678;23.288;2022-12-10T14:09:25;14.20;99.90
21092;DHT22;10704;42.678;23.288;2022-12-10T14:12:05;14.10;99.90
21092;DHT22;10704;42.678;23.288;2022-12-10T14:14:42;14.10;99.90
21092;DHT22;10704;42.678;23.288;2022-12-10T14:17:16;14.10;99.90
21092;DHT22;10704;42.678;23.288;2022-12-10T14:19:45;14.00;99.90
21092;DHT22;10704;42.678;23.288;2022-12-10T14:25:05;13.90;99.90
21092;DHT22;10704;42.678;23.288;2022-12-10T14:27:33;13.90;99.90
21092;DHT22;10704;42.678;23.288;2022-12-10T14:30:17;13.90;99.90
21092;DHT22;10704;42.678;23.288;2022-12-10T14:32:44;14.00;99.90
21092;DHT22;10704;42.678;23.288;2022-12-10T14:35:29;14.00;99.90
21092;DHT22;10704;42.678;23.288;2022-12-10T14:37:57;14.00;99.90
21092;DHT22;10704;42.678;23.288;2022-12-10T14:40:36;14.00;99.90
21092;DHT22;10704;42.678;23.288;2022-12-10T14:43:11;14.00;99.90
21092;DHT22;10704;42.678;23.288;2022-12-10T14:45:45;14.00;99.90
21092;DHT22;10704;42.678;23.288;2022-12-10T14:48:13;13.90;99.90
21092;DHT22;10704;42.678;23.288;2022-12-10T14:50:42;13.90;99.90
21092;DHT22;10704;42.678;23.288;2022-12-10T14:53:22;13.90;99.90
21092;DHT22;10704;42.678;23.288;2022-12-10T14:55:52;13.80;99.90
21092;DHT22;10704;42.678;23.288;2022-12-10T14:58:31;13.80;99.90
21092;DHT22;10704;42.678;23.288;2022-12-10T15:01:01;13.80;99.90
21092;DHT22;10704;42.678;23.288;2022-12-10T15:03:29;13.70;99.90
21092;DHT22;10704;42.678;23.288;2022-12-10T15:05:59;13.60;99.90
21092;DHT22;10704;42.678;23.288;2022-12-10T15:08:27;13.50;99.90
21092;DHT22;10704;42.678;23.288;2022-12-10T15:10:58;13.40;99.90
21092;DHT22;10704;42.678;23.288;2022-12-10T15:13:27;13.40;99.90
21092;DHT22;10704;42.678;23.288;2022-12-10T15:15:54;13.50;99.90
21092;DHT22;10704;42.678;23.288;2022-12-10T15:18:31;13.50;99.90
21092;DHT22;10704;42.678;23.288;2022-12-10T15:21:16;13.40;99.90
21092;DHT22;10704;42.678;23.288;2022-12-10T15:23:44;13.40;99.90
21092;DHT22;10704;42.678;23.288;2022-12-10T15:26:18;13.30;99.90
21092;DHT22;10704;42.678;23.288;2022-12-10T15:28:45;13.30;99.90
21092;DHT22;10704;42.678;23.288;2022-12-10T15:33:54;13.30;99.90
21092;DHT22;10704;42.678;23.288;2022-12-10T15:36:41;13.30;99.90
21092;DHT22;10704;42.678;23.288;2022-12-10T15:41:51;13.40;99.90
21092;DHT22;10704;42.678;23.288;2022-12-10T15:44:19;13.30;99.90
21092;DHT22;10704;42.678;23.288;2022-12-10T15:49:23;13.30;99.90
21092;DHT22;10704;42.678;23.288;2022-12-10T15:51:49;13.30;99.90
21092;DHT22;10704;42.678;23.288;2022-12-10T15:54:23;13.20;99.90
21092;DHT22;10704;42.678;23.288;2022-12-10T15:56:52;13.20;99.90
21092;DHT22;10704;42.678;23.288;2022-12-10T15:59:18;13.20;99.90
21092;DHT22;10704;42.678;23.288;2022-12-10T16:01:45;13.30;99.90
21092;DHT22;10704;42.678;23.288;2022-12-10T16:04:11;13.20;99.90
21092;DHT22;10704;42.678;23.288;2022-12-10T16:06:37;13.20;99.90
21092;DHT22;10704;42.678;23.288;2022-12-10T16:09:03;13.10;99.90
21092;DHT22;10704;42.678;23.288;2022-12-10T16:11:29;12.90;99.90
21092;DHT22;10704;42.678;23.288;2022-12-10T16:13:56;12.80;99.90
21092;DHT22;10704;42.678;23.288;2022-12-10T16:16:24;12.80;99.90
21092;DHT22;10704;42.678;23.288;2022-12-10T16:18:50;12.70;99.90
21092;DHT22;10704;42.678;23.288;2022-12-10T16:21:16;12.90;99.90
21092;DHT22;10704;42.678;23.288;2022-12-10T16:23:42;12.70;99.90
21092;DHT22;10704;42.678;23.288;2022-12-10T16:26:20;12.50;99.90
21092;DHT22;10704;42.678;23.288;2022-12-10T16:28:47;12.60;99.90
21092;DHT22;10704;42.678;23.288;2022-12-10T16:31:16;12.60;99.90
21092;DHT22;10704;42.678;23.288;2022-12-10T16:33:42;12.70;99.90
21092;DHT22;10704;42.678;23.288;2022-12-10T16:36:10;12.60;99.90
21092;DHT22;10704;42.678;23.288;2022-12-10T16:38:38;12.60;99.90
21092;DHT22;10704;42.678;23.288;2022-12-10T16:41:17;12.50;99.90
21092;DHT22;10704;42.678;23.288;2022-12-10T16:43:44;12.60;99.90
21092;DHT22;10704;42.678;23.288;2022-12-10T16:46:10;12.60;99.90
21092;DHT22;10704;42.678;23.288;2022-12-10T16:48:37;12.50;99.90
21092;DHT22;10704;42.678;23.288;2022-12-10T16:51:03;12.60;99.90
21092;DHT22;10704;42.678;23.288;2022-12-10T16:53:31;12.60;99.90
21092;DHT22;10704;42.678;23.288;2022-12-10T16:56:01;12.60;99.90
21092;DHT22;10704;42.678;23.288;2022-12-10T16:58:27;12.50;99.90
21092;DHT22;10704;42.678;23.288;2022-12-10T17:00:54;12.50;99.90
21092;DHT22;10704;42.678;23.288;2022-12-10T17:03:25;12.50;99.90
21092;DHT22;10704;42.678;23.288;2022-12-10T17:05:59;12.50;99.90
21092;DHT22;10704;42.678;23.288;2022-12-10T17:08:27;12.50;99.90
21092;DHT22;10704;42.678;23.288;2022-12-10T17:10:53;12.60;99.90
21092;DHT22;10704;42.678;23.288;2022-12-10T17:13:39;12.50;99.90
21092;DHT22;10704;42.678;23.288;2022-12-10T17:16:08;12.50;99.90
21092;DHT22;10704;42.678;23.288;2022-12-10T17:18:35;12.50;99.90
21092;DHT22;10704;42.678;23.288;2022-12-10T17:21:02;12.40;99.90
21092;DHT22;10704;42.678;23.288;2022-12-10T17:23:28;12.50;99.90
21092;DHT22;10704;42.678;23.288;2022-12-10T17:25:54;12.40;99.90
21092;DHT22;10704;42.678;23.288;2022-12-10T17:28:21;12.30;99.90
21092;DHT22;10704;42.678;23.288;2022-12-10T17:30:48;12.20;99.90
21092;DHT22;10704;42.678;23.288;2022-12-10T17:33:18;12.20;99.90
21092;DHT22;10704;42.678;23.288;2022-12-10T17:35:46;12.20;99.90
21092;DHT22;10704;42.678;23.288;2022-12-10T17:38:18;12.10;99.90
21092;DHT22;10704;42.678;23.288;2022-12-10T17:40:44;12.00;99.90
21092;DHT22;10704;42.678;23.288;2022-12-10T17:43:11;12.00;99.90
21092;DHT22;10704;42.678;23.288;2022-12-10T17:45:39;12.00;99.90
21092;DHT22;10704;42.678;23.288;2022-12-10T17:48:05;12.00;99.90
21092;DHT22;10704;42.678;23.288;2022-12-10T17:50:33;12.00;99.90
21092;DHT22;10704;42.678;23.288;2022-12-10T17:53:02;12.00;99.90
21092;DHT22;10704;42.678;23.288;2022-12-10T17:55:28;12.10;99.90
21092;DHT22;10704;42.678;23.288;2022-12-10T17:57:55;11.90;99.90
21092;DHT22;10704;42.678;23.288;2022-12-10T18:00:26;11.80;99.90
21092;DHT22;10704;42.678;23.288;2022-12-10T18:02:52;11.70;99.90
21092;DHT22;10704;42.678;23.288;2022-12-10T18:05:19;11.60;99.90
21092;DHT22;10704;42.678;23.288;2022-12-10T18:07:45;11.60;99.90
21092;DHT22;10704;42.678;23.288;2022-12-10T18:10:37;11.70;99.90
21092;DHT22;10704;42.678;23.288;2022-12-10T18:13:05;11.70;99.90
21092;DHT22;10704;42.678;23.288;2022-12-10T18:15:31;11.50;99.90